createdAt,value
2023-05-01T00:00:27.973Z,358.00
2023-05-01T00:01:28.071Z,359.00
2023-05-01T00:02:28.133Z,360.00
2023-05-01T00:03:28.389Z,358.00
2023-05-01T00:04:28.237Z,356.00
2023-05-01T00:05:28.302Z,356.00
2023-05-01T00:06:28.408Z,357.00
2023-05-01T00:07:28.470Z,356.00
2023-05-01T00:08:28.427Z,356.00
2023-05-01T00:09:28.521Z,356.00
2023-05-01T00:10:28.583Z,356.00
2023-05-01T00:11:28.785Z,355.00
2023-05-01T00:12:28.724Z,356.00
2023-05-01T00:13:28.732Z,359.00
2023-05-01T00:14:28.806Z,360.00
2023-05-01T00:15:28.882Z,359.00
2023-05-01T00:16:29.005Z,356.00
2023-05-01T00:17:29.040Z,357.00
2023-05-01T00:18:29.072Z,359.00
2023-05-01T00:19:29.118Z,363.00
2023-05-01T00:20:29.160Z,364.00
2023-05-01T00:21:29.345Z,365.00
2023-05-01T00:22:29.346Z,366.00
2023-05-01T00:23:29.355Z,365.00
2023-05-01T00:24:29.387Z,365.00
2023-05-01T00:25:29.422Z,365.00
2023-05-01T00:26:29.479Z,365.00
2023-05-01T00:27:29.535Z,362.00
2023-05-01T00:28:29.597Z,360.00
2023-05-01T00:29:29.601Z,360.00
2023-05-01T00:30:29.640Z,357.00
2023-05-01T00:31:29.755Z,356.00
2023-05-01T00:32:29.669Z,356.00
2023-05-01T00:33:29.741Z,358.00
2023-05-01T00:34:29.738Z,358.00
2023-05-01T00:35:29.694Z,358.00
2023-05-01T00:36:29.768Z,356.00
2023-05-01T00:37:29.814Z,358.00
2023-05-01T00:38:29.914Z,358.00
2023-05-01T00:39:29.989Z,357.00
2023-05-01T00:40:29.999Z,358.00
2023-05-01T00:41:29.993Z,358.00
2023-05-01T00:42:30.050Z,356.00
2023-05-01T00:43:30.034Z,355.00
2023-05-01T00:44:30.113Z,356.00
2023-05-01T00:45:30.156Z,356.00
2023-05-01T00:46:30.383Z,354.00
2023-05-01T00:47:30.220Z,355.00
2023-05-01T00:48:30.244Z,356.00
2023-05-01T00:49:30.256Z,357.00
2023-05-01T00:50:30.288Z,355.00
2023-05-01T00:51:30.381Z,357.00
2023-05-01T00:52:30.408Z,357.00
2023-05-01T00:53:30.483Z,358.00
2023-05-01T00:54:30.522Z,358.00
2023-05-01T00:55:30.663Z,357.00
2023-05-01T00:56:30.645Z,356.00
2023-05-01T00:57:30.660Z,355.00
2023-05-01T00:58:30.710Z,358.00
2023-05-01T00:59:30.784Z,359.00
2023-05-01T01:00:30.836Z,359.00
2023-05-01T01:01:30.863Z,358.00
2023-05-01T01:02:30.924Z,357.00
2023-05-01T01:03:30.917Z,356.00
2023-05-01T01:04:31.009Z,355.00
2023-05-01T01:05:31.105Z,355.00
2023-05-01T01:06:31.051Z,354.00
2023-05-01T01:07:31.010Z,353.00
2023-05-01T01:08:32.671Z,354.00
2023-05-01T01:09:31.107Z,353.00
2023-05-01T01:10:31.114Z,354.00
2023-05-01T01:11:31.173Z,354.00
2023-05-01T01:12:31.223Z,352.00
2023-05-01T01:13:31.187Z,352.00
2023-05-01T01:14:31.192Z,349.00
2023-05-01T01:15:31.186Z,350.00
2023-05-01T01:16:31.329Z,352.00
2023-05-01T01:17:31.281Z,354.00
2023-05-01T01:18:31.336Z,355.00
2023-05-01T01:19:31.373Z,356.00
2023-05-01T01:20:31.380Z,355.00
2023-05-01T01:21:31.354Z,354.00
2023-05-01T01:22:31.387Z,354.00
2023-05-01T01:23:31.446Z,351.00
2023-05-01T01:24:31.462Z,353.00
2023-05-01T01:25:31.456Z,354.00
2023-05-01T01:26:31.486Z,352.00
2023-05-01T01:27:31.488Z,351.00
2023-05-01T01:28:31.491Z,355.00
2023-05-01T01:29:31.465Z,355.00
2023-05-01T01:30:31.499Z,356.00
2023-05-01T01:31:31.522Z,355.00
2023-05-01T01:32:31.496Z,356.00
2023-05-01T01:33:31.478Z,356.00
2023-05-01T01:34:31.471Z,356.00
2023-05-01T01:35:31.484Z,355.00
2023-05-01T01:36:31.493Z,355.00
2023-05-01T01:37:31.452Z,353.00
2023-05-01T01:38:31.498Z,352.00
2023-05-01T01:39:31.477Z,352.00
2023-05-01T01:40:31.471Z,351.00
2023-05-01T01:41:31.483Z,350.00
2023-05-01T01:42:31.485Z,350.00
2023-05-01T01:43:31.472Z,349.00
2023-05-01T01:44:31.498Z,349.00
2023-05-01T01:45:31.501Z,350.00
2023-05-01T01:46:31.543Z,348.00
2023-05-01T01:47:31.511Z,349.00
2023-05-01T01:48:31.496Z,347.00
2023-05-01T01:49:31.532Z,349.00
2023-05-01T01:50:31.496Z,347.00
2023-05-01T01:51:31.494Z,346.00
2023-05-01T01:52:31.507Z,347.00
2023-05-01T01:53:31.505Z,348.00
2023-05-01T01:54:31.505Z,348.00
2023-05-01T01:55:31.528Z,347.00
2023-05-01T01:56:31.483Z,349.00
2023-05-01T01:57:31.540Z,349.00
2023-05-01T01:58:31.540Z,350.00
2023-05-01T01:59:31.495Z,351.00
2023-05-01T02:00:31.507Z,353.00
2023-05-01T02:01:31.505Z,354.00
2023-05-01T02:02:31.604Z,354.00
2023-05-01T02:03:31.653Z,354.00
2023-05-01T02:04:31.562Z,354.00
2023-05-01T02:05:31.539Z,354.00
2023-05-01T02:06:31.646Z,355.00
2023-05-01T02:07:31.549Z,353.00
2023-05-01T02:08:31.564Z,353.00
2023-05-01T02:09:31.560Z,350.00
2023-05-01T02:10:31.526Z,348.00
2023-05-01T02:11:31.529Z,346.00
2023-05-01T02:12:31.550Z,346.00
2023-05-01T02:13:31.590Z,346.00
2023-05-01T02:14:31.545Z,348.00
2023-05-01T02:15:31.549Z,349.00
2023-05-01T02:16:31.542Z,350.00
2023-05-01T02:17:31.954Z,352.00
2023-05-01T02:18:31.573Z,353.00
2023-05-01T02:19:31.510Z,353.00
2023-05-01T02:20:31.535Z,354.00
2023-05-01T02:21:31.619Z,356.00
2023-05-01T02:22:31.596Z,358.00
2023-05-01T02:23:31.618Z,358.00
2023-05-01T02:24:31.687Z,357.00
2023-05-01T02:25:31.658Z,355.00
2023-05-01T02:26:31.583Z,354.00
2023-05-01T02:27:31.588Z,351.00
2023-05-01T02:28:31.545Z,351.00
2023-05-01T02:29:31.565Z,351.00
2023-05-01T02:30:31.560Z,352.00
2023-05-01T02:31:31.629Z,352.00
2023-05-01T02:32:31.599Z,352.00
2023-05-01T02:33:31.582Z,353.00
2023-05-01T02:34:31.606Z,356.00
2023-05-01T02:35:31.647Z,353.00
2023-05-01T02:36:31.602Z,354.00
2023-05-01T02:37:31.629Z,355.00
2023-05-01T02:38:31.659Z,355.00
2023-05-01T02:39:31.626Z,355.00
2023-05-01T02:40:31.695Z,354.00
2023-05-01T02:41:31.817Z,355.00
2023-05-01T02:42:31.650Z,355.00
2023-05-01T02:43:31.637Z,354.00
2023-05-01T02:44:31.650Z,354.00
2023-05-01T02:45:31.732Z,354.00
2023-05-01T02:46:31.685Z,354.00
2023-05-01T02:47:31.732Z,355.00
2023-05-01T02:48:31.671Z,356.00
2023-05-01T02:49:31.679Z,356.00
2023-05-01T02:50:31.743Z,355.00
2023-05-01T02:51:31.758Z,355.00
2023-05-01T02:52:31.763Z,355.00
2023-05-01T02:53:31.760Z,355.00
2023-05-01T02:54:31.747Z,355.00
2023-05-01T02:55:31.779Z,357.00
2023-05-01T02:56:31.758Z,358.00
2023-05-01T02:57:31.791Z,359.00
2023-05-01T02:58:31.867Z,362.00
2023-05-01T02:59:31.814Z,360.00
2023-05-01T03:00:31.804Z,359.00
2023-05-01T03:01:31.829Z,358.00
2023-05-01T03:02:31.832Z,357.00
2023-05-01T03:03:31.829Z,356.00
2023-05-01T03:04:31.870Z,354.00
2023-05-01T03:05:31.854Z,354.00
2023-05-01T03:06:31.852Z,354.00
2023-05-01T03:07:31.810Z,355.00
2023-05-01T03:08:31.819Z,357.00
2023-05-01T03:09:31.832Z,356.00
2023-05-01T03:10:31.844Z,354.00
2023-05-01T03:11:31.900Z,353.00
2023-05-01T03:12:31.961Z,354.00
2023-05-01T03:13:31.873Z,354.00
2023-05-01T03:14:31.852Z,356.00
2023-05-01T03:15:31.867Z,355.00
2023-05-01T03:16:32.075Z,354.00
2023-05-01T03:17:31.907Z,353.00
2023-05-01T03:18:31.895Z,350.00
2023-05-01T03:19:31.910Z,350.00
2023-05-01T03:20:31.907Z,352.00
2023-05-01T03:21:31.959Z,352.00
2023-05-01T03:22:31.921Z,353.00
2023-05-01T03:23:31.918Z,353.00
2023-05-01T03:24:31.935Z,352.00
2023-05-01T03:25:31.937Z,351.00
2023-05-01T03:26:31.990Z,352.00
2023-05-01T03:27:31.946Z,353.00
2023-05-01T03:28:31.968Z,354.00
2023-05-01T03:29:31.958Z,353.00
2023-05-01T03:30:31.970Z,353.00
2023-05-01T03:31:32.028Z,354.00
2023-05-01T03:32:32.014Z,353.00
2023-05-01T03:33:31.988Z,355.00
2023-05-01T03:34:31.980Z,354.00
2023-05-01T03:35:32.133Z,353.00
2023-05-01T03:36:32.046Z,352.00
2023-05-01T03:37:32.066Z,350.00
2023-05-01T03:38:32.015Z,349.00
2023-05-01T03:39:32.028Z,349.00
2023-05-01T03:40:32.032Z,349.00
2023-05-01T03:41:32.017Z,349.00
2023-05-01T03:42:32.039Z,349.00
2023-05-01T03:43:32.042Z,350.00
2023-05-01T03:44:32.050Z,353.00
2023-05-01T03:45:32.055Z,351.00
2023-05-01T03:46:32.154Z,351.00
2023-05-01T03:47:32.094Z,352.00
2023-05-01T03:48:32.081Z,352.00
2023-05-01T03:49:32.101Z,354.00
2023-05-01T03:50:32.129Z,355.00
2023-05-01T03:51:32.132Z,356.00
2023-05-01T03:52:32.149Z,355.00
2023-05-01T03:53:32.134Z,354.00
2023-05-01T03:54:32.183Z,353.00
2023-05-01T03:55:32.194Z,354.00
2023-05-01T03:56:32.137Z,353.00
2023-05-01T03:57:32.165Z,353.00
2023-05-01T03:58:32.143Z,354.00
2023-05-01T03:59:32.211Z,354.00
2023-05-01T04:00:32.250Z,356.00
2023-05-01T04:01:32.203Z,355.00
2023-05-01T04:02:32.263Z,355.00
2023-05-01T04:03:32.322Z,356.00
2023-05-01T04:04:32.397Z,357.00
2023-05-01T04:05:32.209Z,358.00
2023-05-01T04:06:32.405Z,361.00
2023-05-01T04:07:32.251Z,364.00
2023-05-01T04:08:32.279Z,364.00
2023-05-01T04:09:32.258Z,365.00
2023-05-01T04:10:32.281Z,366.00
2023-05-01T04:11:32.357Z,367.00
2023-05-01T04:12:32.353Z,369.00
2023-05-01T04:13:32.427Z,369.00
2023-05-01T04:14:32.415Z,371.00
2023-05-01T04:15:32.453Z,372.00
2023-05-01T04:16:32.530Z,375.00
2023-05-01T04:17:32.672Z,378.00
2023-05-01T04:18:32.569Z,381.00
2023-05-01T04:19:32.597Z,382.00
2023-05-01T04:20:32.675Z,384.00
2023-05-01T04:21:32.663Z,387.00
2023-05-01T04:22:32.750Z,387.00
2023-05-01T04:23:32.789Z,390.00
2023-05-01T04:24:32.815Z,391.00
2023-05-01T04:25:32.864Z,392.00
2023-05-01T04:26:32.969Z,394.00
2023-05-01T04:27:32.959Z,394.00
2023-05-01T04:28:33.021Z,396.00
2023-05-01T04:29:33.084Z,397.00
2023-05-01T04:30:33.140Z,400.00
2023-05-01T04:31:33.264Z,401.00
2023-05-01T04:32:33.260Z,403.00
2023-05-01T04:33:33.325Z,404.00
2023-05-01T04:34:33.327Z,404.00
2023-05-01T04:35:33.333Z,406.00
2023-05-01T04:36:33.448Z,406.00
2023-05-01T04:37:33.452Z,409.00
2023-05-01T04:38:33.454Z,410.00
2023-05-01T04:39:33.509Z,410.00
2023-05-01T04:40:33.497Z,409.00
2023-05-01T04:41:33.574Z,407.00
2023-05-01T04:42:33.560Z,405.00
2023-05-01T04:43:33.593Z,402.00
2023-05-01T04:44:33.665Z,402.00
2023-05-01T04:45:33.651Z,402.00
2023-05-01T04:46:33.703Z,402.00
2023-05-01T04:47:33.800Z,401.00
2023-05-01T04:48:33.766Z,402.00
2023-05-01T04:49:33.738Z,402.00
2023-05-01T04:50:33.733Z,402.00
2023-05-01T04:51:33.755Z,402.00
2023-05-01T04:52:33.763Z,402.00
2023-05-01T04:53:33.770Z,401.00
2023-05-01T04:54:33.777Z,401.00
2023-05-01T04:55:33.788Z,401.00
2023-05-01T04:56:33.791Z,401.00
2023-05-01T04:57:33.835Z,397.00
2023-05-01T04:58:33.838Z,398.00
2023-05-01T04:59:34.467Z,399.00
2023-05-01T05:00:33.826Z,399.00
2023-05-01T05:01:33.886Z,401.00
2023-05-01T05:02:33.942Z,400.00
2023-05-01T05:03:34.025Z,399.00
2023-05-01T05:04:33.889Z,399.00
2023-05-01T05:05:33.957Z,397.00
2023-05-01T05:06:33.993Z,395.00
2023-05-01T05:07:33.958Z,396.00
2023-05-01T05:08:33.963Z,396.00
2023-05-01T05:09:33.966Z,395.00
2023-05-01T05:10:33.980Z,395.00
2023-05-01T05:11:33.982Z,395.00
2023-05-01T05:13:04.736Z,378.00
2023-05-01T05:14:04.749Z,375.00
2023-05-01T05:15:04.765Z,378.00
2023-05-01T05:16:04.759Z,380.00
2023-05-01T05:17:04.787Z,381.00
2023-05-01T05:18:04.820Z,383.00
2023-05-01T05:19:04.767Z,384.00
2023-05-01T05:20:04.807Z,383.00
2023-05-01T05:21:04.813Z,383.00
2023-05-01T05:22:04.819Z,385.00
2023-05-01T05:23:04.828Z,386.00
2023-05-01T05:24:04.839Z,386.00
2023-05-01T05:25:04.844Z,384.00
2023-05-01T05:26:04.846Z,382.00
2023-05-01T05:27:04.856Z,381.00
2023-05-01T05:28:04.865Z,381.00
2023-05-01T05:29:04.879Z,381.00
2023-05-01T05:30:04.893Z,383.00
2023-05-01T05:31:04.892Z,384.00
2023-05-01T05:32:04.962Z,386.00
2023-05-01T05:33:04.973Z,385.00
2023-05-01T05:34:04.979Z,382.00
2023-05-01T05:35:04.908Z,381.00
2023-05-01T05:36:04.889Z,380.00
2023-05-01T05:37:04.918Z,381.00
2023-05-01T05:38:04.882Z,381.00
2023-05-01T05:39:04.908Z,380.00
2023-05-01T05:40:04.905Z,380.00
2023-05-01T05:41:04.917Z,378.00
2023-05-01T05:42:04.938Z,377.00
2023-05-01T05:43:04.961Z,376.00
2023-05-01T05:44:04.998Z,376.00
2023-05-01T05:45:04.930Z,376.00
2023-05-01T05:46:05.027Z,377.00
2023-05-01T05:47:04.945Z,376.00
2023-05-01T05:48:05.026Z,375.00
2023-05-01T05:49:04.969Z,374.00
2023-05-01T05:50:05.021Z,373.00
2023-05-01T05:51:05.018Z,374.00
2023-05-01T05:52:05.078Z,375.00
2023-05-01T05:53:05.067Z,376.00
2023-05-01T05:54:05.048Z,377.00
2023-05-01T05:55:05.074Z,377.00
2023-05-01T05:56:05.088Z,377.00
2023-05-01T05:57:05.112Z,378.00
2023-05-01T05:58:05.109Z,380.00
2023-05-01T05:59:05.131Z,378.00
2023-05-01T06:00:05.121Z,378.00
2023-05-01T06:01:05.135Z,378.00
2023-05-01T06:02:05.198Z,376.00
2023-05-01T06:03:05.298Z,376.00
2023-05-01T06:04:05.107Z,375.00
2023-05-01T06:05:05.225Z,375.00
2023-05-01T06:06:05.251Z,375.00
2023-05-01T06:07:05.114Z,375.00
2023-05-01T06:08:05.122Z,374.00
2023-05-01T06:09:05.090Z,374.00
2023-05-01T06:10:05.109Z,374.00
2023-05-01T06:11:05.109Z,374.00
2023-05-01T06:12:05.124Z,376.00
2023-05-01T06:13:13.488Z,378.00
2023-05-01T06:14:06.128Z,376.00
2023-05-01T06:15:05.107Z,374.00
2023-05-01T06:16:05.149Z,374.00
2023-05-01T06:17:05.095Z,374.00
2023-05-01T06:18:05.112Z,376.00
2023-05-01T06:19:05.074Z,378.00
2023-05-01T06:20:05.052Z,378.00
2023-05-01T06:21:05.058Z,380.00
2023-05-01T06:22:05.039Z,378.00
2023-05-01T06:23:05.036Z,377.00
2023-05-01T06:24:05.044Z,376.00
2023-05-01T06:25:05.027Z,376.00
2023-05-01T06:26:05.019Z,375.00
2023-05-01T06:27:05.004Z,372.00
2023-05-01T06:28:05.030Z,369.00
2023-05-01T06:29:05.037Z,367.00
2023-05-01T06:30:04.991Z,366.00
2023-05-01T06:31:05.019Z,366.00
2023-05-01T06:32:05.001Z,367.00
2023-05-01T06:33:04.999Z,368.00
2023-05-01T06:34:05.023Z,367.00
2023-05-01T06:35:05.052Z,369.00
2023-05-01T06:36:05.126Z,369.00
2023-05-01T06:37:05.172Z,368.00
2023-05-01T06:38:05.214Z,368.00
2023-05-01T06:39:05.244Z,368.00
2023-05-01T06:40:05.311Z,367.00
2023-05-01T06:41:05.361Z,367.00
2023-05-01T06:42:05.408Z,370.00
2023-05-01T06:43:05.515Z,371.00
2023-05-01T06:44:05.554Z,372.00
2023-05-01T06:45:05.589Z,373.00
2023-05-01T06:46:05.652Z,373.00
2023-05-01T06:47:05.756Z,373.00
2023-05-01T06:48:05.819Z,373.00
2023-05-01T06:49:05.797Z,372.00
2023-05-01T06:50:06.112Z,370.00
2023-05-01T06:51:05.942Z,372.00
2023-05-01T06:52:05.982Z,372.00
2023-05-01T06:53:06.037Z,372.00
2023-05-01T06:54:06.102Z,373.00
2023-05-01T06:55:06.182Z,373.00
2023-05-01T06:56:06.224Z,376.00
2023-05-01T06:57:06.338Z,377.00
2023-05-01T06:58:12.626Z,375.00
2023-05-01T06:59:07.388Z,375.00
2023-05-01T07:00:06.347Z,375.00
2023-05-01T07:01:06.388Z,374.00
2023-05-01T07:02:06.388Z,372.00
2023-05-01T07:03:06.356Z,374.00
2023-05-01T07:04:06.290Z,374.00
2023-05-01T07:05:06.290Z,375.00
2023-05-01T07:06:06.369Z,374.00
2023-05-01T07:07:06.327Z,375.00
2023-05-01T07:08:06.416Z,375.00
2023-05-01T07:09:06.486Z,374.00
2023-05-01T07:10:06.533Z,371.00
2023-05-01T07:11:06.559Z,369.00
2023-05-01T07:12:06.658Z,370.00
2023-05-01T07:13:06.727Z,370.00
2023-05-01T07:14:06.766Z,375.00
2023-05-01T07:15:06.884Z,376.00
2023-05-01T07:16:06.908Z,377.00
2023-05-01T07:17:06.928Z,377.00
2023-05-01T07:18:07.097Z,376.00
2023-05-01T07:19:07.050Z,377.00
2023-05-01T07:20:07.102Z,375.00
2023-05-01T07:21:07.136Z,377.00
2023-05-01T07:22:07.243Z,377.00
2023-05-01T07:23:07.777Z,378.00
2023-05-01T07:24:07.284Z,377.00
2023-05-01T07:25:07.348Z,379.00
2023-05-01T07:26:07.396Z,378.00
2023-05-01T07:27:07.463Z,378.00
2023-05-01T07:28:07.492Z,376.00
2023-05-01T07:29:07.506Z,375.00
2023-05-01T07:30:07.549Z,376.00
2023-05-01T07:31:07.614Z,376.00
2023-05-01T07:32:07.726Z,377.00
2023-05-01T07:33:07.748Z,376.00
2023-05-01T07:34:07.752Z,375.00
2023-05-01T07:35:07.768Z,373.00
2023-05-01T07:36:07.853Z,373.00
2023-05-01T07:37:07.898Z,374.00
2023-05-01T07:38:07.919Z,375.00
2023-05-01T07:39:07.945Z,373.00
2023-05-01T07:40:07.985Z,372.00
2023-05-01T07:41:08.032Z,372.00
2023-05-01T07:42:08.092Z,372.00
2023-05-01T07:43:08.142Z,372.00
2023-05-01T07:44:08.171Z,373.00
2023-05-01T07:45:08.289Z,373.00
2023-05-01T07:46:08.327Z,373.00
2023-05-01T07:47:08.309Z,374.00
2023-05-01T07:48:08.484Z,375.00
2023-05-01T07:49:08.420Z,377.00
2023-05-01T07:50:08.449Z,378.00
2023-05-01T07:51:08.489Z,377.00
2023-05-01T07:52:08.555Z,380.00
2023-05-01T07:53:08.638Z,380.00
2023-05-01T07:54:08.618Z,380.00
2023-05-01T07:55:08.686Z,380.00
2023-05-01T07:56:09.005Z,380.00
2023-05-01T07:57:08.757Z,379.00
2023-05-01T07:58:08.819Z,375.00
2023-05-01T07:59:08.839Z,375.00
2023-05-01T08:00:08.931Z,375.00
2023-05-01T08:01:08.921Z,376.00
2023-05-01T08:02:09.006Z,377.00
2023-05-01T08:03:09.170Z,377.00
2023-05-01T08:04:09.088Z,378.00
2023-05-01T08:05:09.082Z,379.00
2023-05-01T08:06:09.138Z,377.00
2023-05-01T08:07:09.161Z,376.00
2023-05-01T08:08:09.235Z,374.00
2023-05-01T08:09:09.332Z,373.00
2023-05-01T08:10:09.257Z,373.00
2023-05-01T08:11:09.312Z,373.00
2023-05-01T08:12:09.329Z,374.00
2023-05-01T08:13:09.449Z,374.00
2023-05-01T08:14:09.367Z,375.00
2023-05-01T08:15:09.400Z,376.00
2023-05-01T08:16:09.484Z,376.00
2023-05-01T08:17:09.474Z,378.00
2023-05-01T08:18:09.532Z,378.00
2023-05-01T08:19:09.504Z,378.00
2023-05-01T08:20:09.560Z,379.00
2023-05-01T08:21:09.524Z,377.00
2023-05-01T08:22:09.551Z,375.00
2023-05-01T08:23:09.582Z,377.00
2023-05-01T08:24:09.660Z,376.00
2023-05-01T08:25:09.640Z,375.00
2023-05-01T08:26:09.674Z,376.00
2023-05-01T08:27:09.690Z,375.00
2023-05-01T08:28:09.738Z,375.00
2023-05-01T08:29:09.722Z,375.00
2023-05-01T08:30:09.771Z,378.00
2023-05-01T08:31:09.837Z,379.00
2023-05-01T08:32:09.808Z,378.00
2023-05-01T08:33:09.825Z,377.00
2023-05-01T08:34:09.819Z,378.00
2023-05-01T08:35:09.827Z,376.00
2023-05-01T08:36:09.813Z,374.00
2023-05-01T08:37:09.838Z,376.00
2023-05-01T08:38:09.843Z,374.00
2023-05-01T08:39:09.876Z,375.00
2023-05-01T08:40:09.864Z,373.00
2023-05-01T08:41:09.873Z,373.00
2023-05-01T08:42:09.882Z,373.00
2023-05-01T08:43:09.893Z,373.00
2023-05-01T08:44:09.856Z,373.00
2023-05-01T08:45:09.906Z,372.00
2023-05-01T08:46:09.932Z,371.00
2023-05-01T08:47:09.994Z,371.00
2023-05-01T08:48:09.939Z,370.00
2023-05-01T08:49:09.862Z,370.00
2023-05-01T08:50:09.878Z,371.00
2023-05-01T08:51:09.833Z,371.00
2023-05-01T08:52:09.886Z,371.00
2023-05-01T08:53:09.886Z,369.00
2023-05-01T08:54:09.890Z,372.00
2023-05-01T08:55:09.877Z,374.00
2023-05-01T08:56:09.929Z,373.00
2023-05-01T08:57:10.509Z,371.00
2023-05-01T08:58:09.908Z,371.00
2023-05-01T08:59:09.929Z,372.00
2023-05-01T09:00:09.939Z,374.00
2023-05-01T09:01:10.008Z,373.00
2023-05-01T09:02:10.065Z,371.00
2023-05-01T09:03:10.026Z,370.00
2023-05-01T09:04:10.002Z,371.00
2023-05-01T09:05:09.974Z,370.00
2023-05-01T09:06:09.962Z,368.00
2023-05-01T09:07:09.953Z,367.00
2023-05-01T09:08:09.949Z,367.00
2023-05-01T09:09:09.973Z,366.00
2023-05-01T09:10:09.980Z,367.00
2023-05-01T09:11:09.994Z,369.00
2023-05-01T09:12:10.017Z,368.00
2023-05-01T09:13:10.059Z,367.00
2023-05-01T09:14:10.039Z,367.00
2023-05-01T09:15:10.038Z,370.00
2023-05-01T09:16:10.099Z,371.00
2023-05-01T09:17:10.104Z,372.00
2023-05-01T09:18:10.258Z,370.00
2023-05-01T09:19:10.166Z,370.00
2023-05-01T09:20:10.179Z,370.00
2023-05-01T09:21:10.194Z,371.00
2023-05-01T09:22:10.261Z,371.00
2023-05-01T09:23:10.323Z,368.00
2023-05-01T09:24:10.349Z,367.00
2023-05-01T09:25:10.374Z,369.00
2023-05-01T09:26:10.419Z,369.00
2023-05-01T09:27:10.421Z,368.00
2023-05-01T09:28:10.493Z,368.00
2023-05-01T09:29:10.522Z,368.00
2023-05-01T09:30:10.549Z,367.00
2023-05-01T09:31:10.609Z,368.00
2023-05-01T09:32:10.766Z,368.00
2023-05-01T09:33:10.812Z,368.00
2023-05-01T09:34:10.734Z,368.00
2023-05-01T09:35:10.790Z,369.00
2023-05-01T09:36:10.893Z,370.00
2023-05-01T09:37:10.963Z,370.00
2023-05-01T09:38:11.023Z,370.00
2023-05-01T09:39:11.083Z,368.00
2023-05-01T09:40:11.105Z,369.00
2023-05-01T09:41:11.194Z,367.00
2023-05-01T09:42:11.258Z,366.00
2023-05-01T09:43:11.860Z,364.00
2023-05-01T09:44:11.370Z,365.00
2023-05-01T09:45:11.368Z,366.00
2023-05-01T09:46:11.554Z,368.00
2023-05-01T09:47:11.494Z,370.00
2023-05-01T09:48:11.867Z,372.00
2023-05-01T09:49:11.596Z,371.00
2023-05-01T09:50:11.662Z,368.00
2023-05-01T09:51:11.685Z,368.00
2023-05-01T09:52:11.721Z,370.00
2023-05-01T09:53:11.789Z,372.00
2023-05-01T09:54:11.844Z,369.00
2023-05-01T09:55:11.852Z,369.00
2023-05-01T09:56:11.919Z,366.00
2023-05-01T09:57:11.975Z,367.00
2023-05-01T09:58:12.003Z,366.00
2023-05-01T09:59:12.035Z,366.00
2023-05-01T10:00:12.085Z,368.00
2023-05-01T10:01:12.232Z,365.00
2023-05-01T10:02:12.235Z,365.00
2023-05-01T10:03:12.258Z,367.00
2023-05-01T10:04:12.299Z,366.00
2023-05-01T10:05:12.316Z,368.00
2023-05-01T10:06:12.384Z,368.00
2023-05-01T10:07:12.338Z,368.00
2023-05-01T10:08:12.421Z,367.00
2023-05-01T10:09:12.432Z,369.00
2023-05-01T10:10:12.465Z,371.00
2023-05-01T10:11:12.542Z,371.00
2023-05-01T10:12:12.579Z,372.00
2023-05-01T10:13:12.568Z,373.00
2023-05-01T10:14:12.595Z,374.00
2023-05-01T10:15:24.849Z,373.00
2023-05-01T10:16:13.741Z,373.00
2023-05-01T10:17:12.658Z,371.00
2023-05-01T10:18:12.641Z,372.00
2023-05-01T10:19:12.627Z,371.00
2023-05-01T10:20:12.611Z,371.00
2023-05-01T10:21:12.655Z,369.00
2023-05-01T10:22:12.639Z,368.00
2023-05-01T10:23:12.590Z,367.00
2023-05-01T10:24:12.677Z,366.00
2023-05-01T10:25:12.606Z,368.00
2023-05-01T10:26:12.575Z,369.00
2023-05-01T10:27:12.636Z,369.00
2023-05-01T10:28:12.588Z,369.00
2023-05-01T10:29:12.567Z,372.00
2023-05-01T10:30:12.566Z,373.00
2023-05-01T10:31:12.556Z,372.00
2023-05-01T10:32:12.620Z,373.00
2023-05-01T10:33:12.608Z,376.00
2023-05-01T10:34:12.572Z,375.00
2023-05-01T10:35:12.609Z,374.00
2023-05-01T10:36:12.613Z,372.00
2023-05-01T10:37:12.654Z,373.00
2023-05-01T10:38:12.624Z,373.00
2023-05-01T10:39:12.658Z,373.00
2023-05-01T10:40:12.663Z,372.00
2023-05-01T10:41:12.670Z,370.00
2023-05-01T10:42:12.659Z,370.00
2023-05-01T10:43:12.690Z,369.00
2023-05-01T10:44:12.697Z,369.00
2023-05-01T10:45:12.789Z,368.00
2023-05-01T10:46:12.770Z,369.00
2023-05-01T10:47:12.769Z,370.00
2023-05-01T10:48:12.776Z,370.00
2023-05-01T10:49:12.753Z,371.00
2023-05-01T10:50:12.808Z,371.00
2023-05-01T10:51:12.800Z,371.00
2023-05-01T10:52:12.765Z,369.00
2023-05-01T10:53:12.775Z,371.00
2023-05-01T10:54:12.821Z,371.00
2023-05-01T10:55:12.818Z,370.00
2023-05-01T10:56:12.795Z,371.00
2023-05-01T10:57:12.862Z,371.00
2023-05-01T10:58:12.854Z,370.00
2023-05-01T10:59:12.819Z,369.00
2023-05-01T11:00:12.869Z,369.00
2023-05-01T11:01:12.919Z,369.00
2023-05-01T11:02:12.894Z,369.00
2023-05-01T11:03:12.960Z,370.00
2023-05-01T11:04:12.863Z,372.00
2023-05-01T11:05:12.866Z,372.00
2023-05-01T11:06:12.958Z,369.00
2023-05-01T11:07:12.929Z,369.00
2023-05-01T11:08:12.862Z,372.00
2023-05-01T11:09:12.841Z,372.00
2023-05-01T11:10:12.949Z,372.00
2023-05-01T11:11:12.886Z,372.00
2023-05-01T11:12:12.888Z,369.00
2023-05-01T11:13:12.878Z,368.00
2023-05-01T11:14:12.868Z,366.00
2023-05-01T11:15:12.898Z,366.00
2023-05-01T11:16:12.975Z,366.00
2023-05-01T11:17:12.889Z,368.00
2023-05-01T11:18:12.941Z,369.00
2023-05-01T11:19:12.895Z,370.00
2023-05-01T11:20:13.051Z,369.00
2023-05-01T11:21:12.912Z,370.00
2023-05-01T11:22:12.907Z,370.00
2023-05-01T11:23:12.879Z,366.00
2023-05-01T11:24:12.891Z,364.00
2023-05-01T11:25:12.938Z,365.00
2023-05-01T11:26:12.963Z,364.00
2023-05-01T11:27:12.991Z,364.00
2023-05-01T11:28:13.045Z,362.00
2023-05-01T11:29:13.061Z,362.00
2023-05-01T11:30:13.233Z,362.00
2023-05-01T11:31:13.176Z,364.00
2023-05-01T11:32:13.330Z,366.00
2023-05-01T11:33:13.284Z,367.00
2023-05-01T11:34:13.253Z,370.00
2023-05-01T11:35:13.308Z,368.00
2023-05-01T11:36:13.313Z,369.00
2023-05-01T11:37:13.373Z,367.00
2023-05-01T11:38:13.400Z,366.00
2023-05-01T11:39:13.528Z,364.00
2023-05-01T11:40:13.492Z,365.00
2023-05-01T11:41:13.551Z,365.00
2023-05-01T11:42:13.667Z,363.00
2023-05-01T11:43:13.606Z,361.00
2023-05-01T11:44:13.741Z,362.00
2023-05-01T11:45:13.737Z,362.00
2023-05-01T11:46:13.827Z,362.00
2023-05-01T11:47:13.799Z,363.00
2023-05-01T11:48:13.919Z,364.00
2023-05-01T11:49:13.932Z,365.00
2023-05-01T11:50:13.929Z,367.00
2023-05-01T11:51:14.033Z,366.00
2023-05-01T11:52:14.080Z,368.00
2023-05-01T11:53:14.145Z,370.00
2023-05-01T11:54:15.805Z,370.00
2023-05-01T11:55:14.265Z,369.00
2023-05-01T11:56:25.468Z,369.00
2023-05-01T11:57:15.318Z,370.00
2023-05-01T11:58:14.330Z,371.00
2023-05-01T11:59:14.301Z,370.00
2023-05-01T12:00:14.308Z,370.00
2023-05-01T12:01:14.339Z,369.00
2023-05-01T12:02:14.280Z,368.00
2023-05-01T12:03:14.760Z,365.00
2023-05-01T12:04:14.346Z,366.00
2023-05-01T12:05:14.295Z,367.00
2023-05-01T12:06:14.408Z,369.00
2023-05-01T12:07:14.341Z,369.00
2023-05-01T12:08:14.447Z,372.00
2023-05-01T12:09:14.509Z,372.00
2023-05-01T12:10:14.537Z,371.00
2023-05-01T12:11:14.608Z,369.00
2023-05-01T12:12:14.688Z,369.00
2023-05-01T12:13:14.736Z,367.00
2023-05-01T12:14:14.777Z,365.00
2023-05-01T12:15:14.886Z,367.00
2023-05-01T12:16:14.926Z,367.00
2023-05-01T12:17:15.018Z,366.00
2023-05-01T12:18:16.207Z,367.00
2023-05-01T12:19:15.066Z,369.00
2023-05-01T12:20:15.117Z,372.00
2023-05-01T12:21:15.183Z,371.00
2023-05-01T12:22:15.307Z,372.00
2023-05-01T12:23:15.314Z,373.00
2023-05-01T12:24:15.322Z,374.00
2023-05-01T12:25:15.405Z,374.00
2023-05-01T12:26:15.493Z,375.00
2023-05-01T12:27:15.535Z,372.00
2023-05-01T12:28:15.593Z,370.00
2023-05-01T12:29:15.649Z,368.00